createdAt,value
2023-01-03T00:01:41.647Z,102533.00
2023-01-03T00:04:08.629Z,102537.00
2023-01-03T00:06:39.277Z,102527.00
2023-01-03T00:09:09.578Z,102530.00
2023-01-03T00:11:56.418Z,102528.00
2023-01-03T00:14:26.394Z,102531.00
2023-01-03T00:16:55.058Z,102522.00
2023-01-03T00:19:23.397Z,102531.00
2023-01-03T00:21:50.131Z,102532.00
2023-01-03T00:24:17.484Z,102528.00
2023-01-03T00:26:44.453Z,102526.00
2023-01-03T00:29:12.170Z,102535.00
2023-01-03T00:31:39.955Z,102530.00
2023-01-03T00:34:07.303Z,102527.00
2023-01-03T00:36:34.737Z,102522.00
2023-01-03T00:39:01.469Z,102522.00
2023-01-03T00:41:28.235Z,102523.00
2023-01-03T00:43:54.926Z,102528.00
2023-01-03T00:46:21.678Z,102524.00
2023-01-03T00:48:48.426Z,102524.00
2023-01-03T00:51:19.422Z,102526.00
2023-01-03T00:53:48.044Z,102520.00
2023-01-03T00:56:17.478Z,102520.00
2023-01-03T00:58:44.278Z,102515.00
2023-01-03T01:01:13.731Z,102512.00
2023-01-03T01:03:44.136Z,102517.00
2023-01-03T01:06:31.370Z,102512.00
2023-01-03T01:08:59.927Z,102504.00
2023-01-03T01:11:28.572Z,102504.00
2023-01-03T01:13:55.638Z,102505.00
2023-01-03T01:16:26.389Z,102502.00
2023-01-03T01:18:53.940Z,102497.00
2023-01-03T01:21:26.521Z,102504.00
2023-01-03T01:23:53.783Z,102506.00
2023-01-03T01:26:24.390Z,102516.00
2023-01-03T01:28:52.972Z,102509.00
2023-01-03T01:31:22.845Z,102501.00
2023-01-03T01:33:50.080Z,102499.00
2023-01-03T01:36:28.592Z,102502.00
2023-01-03T01:39:04.622Z,102506.00
2023-01-03T01:41:51.661Z,102505.00
2023-01-03T01:44:43.089Z,102510.00
2023-01-03T01:47:13.182Z,102516.00
2023-01-03T01:49:39.871Z,102516.00
2023-01-03T01:52:06.917Z,102514.00
2023-01-03T01:54:34.462Z,102509.00
2023-01-03T01:57:01.125Z,102507.00
2023-01-03T01:59:28.483Z,102512.00
2023-01-03T02:01:55.995Z,102510.00
2023-01-03T02:04:29.756Z,102505.00
2023-01-03T02:06:57.487Z,102503.00
2023-01-03T02:09:24.168Z,102511.00
2023-01-03T02:12:21.398Z,102504.00
2023-01-03T02:14:50.969Z,102514.00
2023-01-03T02:17:26.981Z,102506.00
2023-01-03T02:20:18.452Z,102505.00
2023-01-03T02:23:16.992Z,102501.00
2023-01-03T02:26:11.299Z,102485.00
2023-01-03T02:28:40.915Z,102492.00
2023-01-03T02:31:25.506Z,102500.00
2023-01-03T02:34:12.237Z,102495.00
2023-01-03T02:37:17.302Z,102497.00
2023-01-03T02:40:02.637Z,102502.00
2023-01-03T02:42:53.396Z,102488.00
2023-01-03T02:45:33.820Z,102503.00
2023-01-03T02:48:13.782Z,102482.00
2023-01-03T02:50:48.286Z,102484.00
2023-01-03T02:53:24.803Z,102483.00
2023-01-03T02:55:54.885Z,102483.00
2023-01-03T02:58:25.649Z,102488.00
2023-01-03T03:00:59.978Z,102483.00
2023-01-03T03:03:32.510Z,102478.00
2023-01-03T03:06:08.374Z,102480.00
2023-01-03T03:08:35.051Z,102477.00
2023-01-03T03:11:20.077Z,102464.00
2023-01-03T03:13:58.349Z,102466.00
2023-01-03T03:16:49.927Z,102455.00
2023-01-03T03:19:48.539Z,102446.00
2023-01-03T03:22:52.437Z,102454.00
2023-01-03T03:25:23.023Z,102452.00
2023-01-03T03:28:13.139Z,102460.00
2023-01-03T03:30:42.292Z,102483.00
2023-01-03T03:33:11.881Z,102507.00
2023-01-03T03:36:04.746Z,102491.00
2023-01-03T03:38:41.235Z,102453.00
2023-01-03T03:41:35.591Z,102463.00
2023-01-03T03:44:49.686Z,102458.00
2023-01-03T03:47:24.908Z,102443.00
2023-01-03T03:49:54.824Z,102434.00
2023-01-03T03:52:26.279Z,102439.00
2023-01-03T03:55:01.111Z,102439.00
2023-01-03T03:57:54.192Z,102444.00
2023-01-03T04:00:26.506Z,102430.00
2023-01-03T04:02:55.187Z,102427.00
2023-01-03T04:05:24.920Z,102429.00
2023-01-03T04:07:51.750Z,102425.00
2023-01-03T04:10:20.631Z,102430.00
2023-01-03T04:12:48.928Z,102429.00
2023-01-03T04:15:15.957Z,102435.00
2023-01-03T04:17:43.000Z,102427.00
2023-01-03T04:20:11.115Z,102444.00
2023-01-03T04:22:38.308Z,102438.00
2023-01-03T04:25:05.408Z,102439.00
2023-01-03T04:27:32.053Z,102434.00
2023-01-03T04:29:58.670Z,102434.00
2023-01-03T04:32:25.452Z,102435.00
2023-01-03T04:34:52.102Z,102432.00
2023-01-03T04:37:18.705Z,102440.00
2023-01-03T04:39:45.429Z,102436.00
2023-01-03T04:42:30.421Z,102434.00
2023-01-03T04:44:57.031Z,102428.00
2023-01-03T04:47:23.691Z,102433.00
2023-01-03T04:49:50.305Z,102431.00
2023-01-03T04:52:17.115Z,102432.00
2023-01-03T04:54:44.060Z,102432.00
2023-01-03T04:57:10.896Z,102417.00
2023-01-03T04:59:38.217Z,102419.00
2023-01-03T05:02:05.390Z,102431.00
2023-01-03T05:04:32.493Z,102423.00
2023-01-03T05:06:59.236Z,102418.00
2023-01-03T05:09:27.314Z,102423.00
2023-01-03T05:11:54.051Z,102420.00
2023-01-03T05:14:20.673Z,102425.00
2023-01-03T05:16:47.368Z,102423.00
2023-01-03T05:19:14.120Z,102413.00
2023-01-03T05:21:59.243Z,102429.00
2023-01-03T05:24:44.587Z,102432.00
2023-01-03T05:27:11.476Z,102439.00
2023-01-03T05:29:38.238Z,102436.00
2023-01-03T05:32:05.474Z,102434.00
2023-01-03T05:34:32.083Z,102441.00
2023-01-03T05:36:58.711Z,102440.00
2023-01-03T05:39:25.305Z,102436.00
2023-01-03T05:42:00.908Z,102440.00
2023-01-03T05:44:32.711Z,102436.00
2023-01-03T05:47:00.713Z,102438.00
2023-01-03T05:49:27.876Z,102436.00
2023-01-03T05:51:54.568Z,102431.00
2023-01-03T05:54:21.454Z,102435.00
2023-01-03T05:56:48.169Z,102436.00
2023-01-03T05:59:14.904Z,102433.00
2023-01-03T06:01:41.627Z,102440.00
2023-01-03T06:04:08.451Z,102437.00
2023-01-03T06:06:35.173Z,102448.00
2023-01-03T06:09:01.762Z,102442.00
2023-01-03T06:11:28.407Z,102440.00
2023-01-03T06:13:55.138Z,102443.00
2023-01-03T06:16:40.835Z,102445.00
2023-01-03T06:19:08.431Z,102450.00
2023-01-03T06:21:36.142Z,102437.00
2023-01-03T06:24:03.073Z,102449.00
2023-01-03T06:26:29.716Z,102446.00
2023-01-03T06:28:56.382Z,102451.00
2023-01-03T06:31:23.098Z,102453.00
2023-01-03T06:33:49.978Z,102452.00
2023-01-03T06:36:19.508Z,102454.00
2023-01-03T06:38:46.590Z,102450.00
2023-01-03T06:41:14.510Z,102456.00
2023-01-03T06:43:41.630Z,102451.00
2023-01-03T06:46:29.229Z,102441.00
2023-01-03T06:49:14.464Z,102444.00
2023-01-03T06:51:59.346Z,102438.00
2023-01-03T06:54:34.188Z,102439.00
2023-01-03T06:57:00.832Z,102446.00
2023-01-03T06:59:27.571Z,102448.00
2023-01-03T07:01:55.019Z,102454.00
2023-01-03T07:04:24.028Z,102452.00
2023-01-03T07:06:51.441Z,102459.00
2023-01-03T07:09:18.055Z,102457.00
2023-01-03T07:11:44.927Z,102464.00
2023-01-03T07:14:12.225Z,102455.00
2023-01-03T07:16:44.105Z,102470.00
2023-01-03T07:19:14.626Z,102461.00
2023-01-03T07:21:41.801Z,102465.00
2023-01-03T07:24:12.016Z,102469.00
2023-01-03T07:26:39.212Z,102458.00
2023-01-03T07:29:08.053Z,102457.00
2023-01-03T07:31:35.545Z,102459.00
2023-01-03T07:34:02.231Z,102457.00
2023-01-03T07:36:35.025Z,102468.00
2023-01-03T07:39:01.736Z,102463.00
2023-01-03T07:41:48.294Z,102466.00
2023-01-03T07:44:15.004Z,102471.00
2023-01-03T07:46:41.768Z,102467.00
2023-01-03T07:49:11.924Z,102480.00
2023-01-03T07:51:39.152Z,102477.00
2023-01-03T07:54:07.736Z,102488.00
2023-01-03T07:56:34.729Z,102486.00
2023-01-03T07:59:02.151Z,102497.00
2023-01-03T08:01:30.336Z,102483.00
2023-01-03T08:03:57.350Z,102497.00
2023-01-03T08:06:24.971Z,102482.00
2023-01-03T08:09:10.422Z,102480.00
2023-01-03T08:11:55.975Z,102484.00
2023-01-03T08:14:26.109Z,102481.00
2023-01-03T08:16:54.198Z,102484.00
2023-01-03T08:19:20.893Z,102481.00
2023-01-03T08:21:47.516Z,102485.00
2023-01-03T08:24:14.271Z,102489.00
2023-01-03T08:26:40.958Z,102483.00
2023-01-03T08:29:08.046Z,102486.00
2023-01-03T08:31:38.167Z,102491.00
2023-01-03T08:34:13.816Z,102489.00
2023-01-03T08:36:49.699Z,102492.00
2023-01-03T08:39:20.671Z,102492.00
2023-01-03T08:41:54.806Z,102493.00
2023-01-03T08:44:21.415Z,102488.00
2023-01-03T08:46:51.405Z,102481.00
2023-01-03T08:49:19.284Z,102498.00
2023-01-03T08:51:46.033Z,102500.00
2023-01-03T08:54:12.638Z,102493.00
2023-01-03T08:56:40.100Z,102497.00
2023-01-03T08:59:07.161Z,102495.00
2023-01-03T09:01:34.302Z,102489.00
2023-01-03T09:04:01.128Z,102507.00
2023-01-03T09:06:27.861Z,102505.00
2023-01-03T09:08:54.514Z,102520.00
2023-01-03T09:11:21.138Z,102513.00
2023-01-03T09:13:48.265Z,102520.00
2023-01-03T09:16:16.895Z,102521.00
2023-01-03T09:18:43.872Z,102532.00
2023-01-03T09:21:10.577Z,102536.00
2023-01-03T09:23:38.039Z,102538.00
2023-01-03T09:26:05.501Z,102540.00
2023-01-03T09:28:32.570Z,102557.00
2023-01-03T09:30:59.236Z,102536.00
2023-01-03T09:33:26.063Z,102544.00
2023-01-03T09:35:54.578Z,102533.00
2023-01-03T09:38:22.675Z,102530.00
2023-01-03T09:41:06.463Z,102522.00
2023-01-03T09:43:37.695Z,102527.00
2023-01-03T09:46:06.049Z,102530.00
2023-01-03T09:48:41.094Z,102532.00
2023-01-03T09:51:33.023Z,102529.00
2023-01-03T09:54:18.159Z,102524.00
2023-01-03T09:57:03.017Z,102535.00
2023-01-03T09:59:55.045Z,102536.00
2023-01-03T10:03:07.795Z,102541.00
2023-01-03T10:05:46.593Z,102541.00
2023-01-03T10:08:41.782Z,102539.00
2023-01-03T10:11:40.263Z,102538.00
2023-01-03T10:14:22.657Z,102532.00
2023-01-03T10:17:04.179Z,102539.00
2023-01-03T10:20:15.909Z,102539.00
2023-01-03T10:22:42.782Z,102537.00
2023-01-03T10:25:23.818Z,102540.00
2023-01-03T10:27:59.179Z,102545.00
2023-01-03T10:30:31.716Z,102545.00
2023-01-03T10:33:27.540Z,102541.00
2023-01-03T10:35:57.280Z,102543.00
2023-01-03T10:38:25.864Z,102533.00
2023-01-03T10:41:03.389Z,102533.00
2023-01-03T10:43:39.305Z,102532.00
2023-01-03T10:46:17.918Z,102517.00
2023-01-03T10:51:47.438Z,102518.00
2023-01-03T10:54:20.143Z,102516.00
2023-01-03T10:56:48.655Z,102515.00
2023-01-03T10:59:15.221Z,102513.00
2023-01-03T11:02:18.576Z,102510.00
2023-01-03T11:04:45.317Z,102510.00
2023-01-03T11:07:13.802Z,102508.00
2023-01-03T11:09:51.553Z,102490.00
2023-01-03T11:12:38.622Z,102504.00
2023-01-03T11:15:16.404Z,102495.00
2023-01-03T11:17:57.684Z,102498.00
2023-01-03T11:20:41.141Z,102501.00
2023-01-03T11:23:19.371Z,102498.00
2023-01-03T11:26:21.536Z,102487.00
2023-01-03T11:29:00.170Z,102491.00
2023-01-03T11:31:49.963Z,102489.00
2023-01-03T11:35:20.765Z,102495.00
2023-01-03T11:37:41.329Z,102479.00
2023-01-03T11:40:25.175Z,102488.00
2023-01-03T11:43:20.700Z,102474.00
2023-01-03T11:45:50.209Z,102471.00
2023-01-03T11:48:38.397Z,102472.00
2023-01-03T11:51:26.194Z,102459.00
2023-01-03T11:54:30.192Z,102466.00
2023-01-03T11:56:58.628Z,102460.00
2023-01-03T11:59:57.009Z,102460.00
2023-01-03T12:02:49.131Z,102462.00
2023-01-03T12:05:40.286Z,102465.00
2023-01-03T12:08:16.468Z,102450.00
2023-01-03T12:10:58.723Z,102454.00
2023-01-03T12:13:56.283Z,102445.00
2023-01-03T12:16:35.303Z,102446.00
2023-01-03T12:19:16.815Z,102443.00
2023-01-03T12:21:50.529Z,102436.00
2023-01-03T12:24:40.177Z,102433.00
2023-01-03T12:27:24.066Z,102427.00
2023-01-03T12:30:16.378Z,102415.00
2023-01-03T12:32:47.578Z,102419.00
2023-01-03T12:35:33.700Z,102420.00
2023-01-03T12:38:00.806Z,102425.00
2023-01-03T12:40:36.294Z,102418.00
2023-01-03T12:43:09.056Z,102410.00
2023-01-03T12:45:50.411Z,102411.00
2023-01-03T12:48:44.376Z,102413.00
2023-01-03T12:51:15.154Z,102405.00
2023-01-03T12:53:46.817Z,102412.00
2023-01-03T12:56:32.035Z,102411.00
2023-01-03T12:59:20.301Z,102410.00
2023-01-03T13:01:59.252Z,102392.00
2023-01-03T13:04:28.928Z,102389.00
2023-01-03T13:07:19.184Z,102389.00
2023-01-03T13:09:57.413Z,102382.00
2023-01-03T13:12:30.463Z,102372.00
2023-01-03T13:15:05.383Z,102368.00
2023-01-03T13:17:42.888Z,102362.00
2023-01-03T13:20:33.434Z,102363.00
2023-01-03T13:23:31.065Z,102357.00
2023-01-03T13:26:27.304Z,102357.00
2023-01-03T13:29:32.233Z,102354.00
2023-01-03T13:32:15.223Z,102341.00
2023-01-03T13:34:42.215Z,102347.00
2023-01-03T13:37:08.840Z,102344.00
2023-01-03T13:39:50.515Z,102335.00
2023-01-03T13:42:28.246Z,102333.00
2023-01-03T13:45:15.972Z,102329.00
2023-01-03T13:47:47.506Z,102331.00
2023-01-03T13:50:23.019Z,102331.00
2023-01-03T13:53:11.226Z,102317.00
2023-01-03T13:55:39.105Z,102320.00
2023-01-03T13:58:41.267Z,102330.00
2023-01-03T14:01:24.293Z,102321.00
2023-01-03T14:04:27.994Z,102319.00
2023-01-03T14:07:15.198Z,102311.00
2023-01-03T14:09:56.367Z,102310.00
2023-01-03T14:13:01.595Z,102302.00
2023-01-03T14:15:31.594Z,102303.00
2023-01-03T14:18:08.293Z,102306.00
2023-01-03T14:20:36.994Z,102297.00
2023-01-03T14:23:31.624Z,102290.00
2023-01-03T14:25:54.490Z,102288.00
2023-01-03T14:28:32.434Z,102291.00
2023-01-03T14:31:07.720Z,102289.00
2023-01-03T14:33:42.733Z,102297.00
2023-01-03T14:36:16.188Z,102284.00
2023-01-03T14:39:01.409Z,102286.00
2023-01-03T14:41:32.504Z,102291.00
2023-01-03T14:44:04.332Z,102278.00
2023-01-03T14:46:31.753Z,102285.00
2023-01-03T14:49:03.631Z,102286.00
2023-01-03T14:51:33.518Z,102271.00
2023-01-03T14:54:00.784Z,102281.00
2023-01-03T14:56:28.514Z,102283.00
2023-01-03T14:58:55.802Z,102281.00
2023-01-03T15:01:23.620Z,102288.00
2023-01-03T15:03:52.118Z,102289.00
2023-01-03T15:06:28.098Z,102292.00
2023-01-03T15:09:01.390Z,102284.00
2023-01-03T15:11:56.208Z,102289.00
2023-01-03T15:14:24.778Z,102279.00
2023-01-03T15:16:52.461Z,102273.00
2023-01-03T15:19:23.067Z,102267.00
2023-01-03T15:21:49.788Z,102261.00
2023-01-03T15:24:19.135Z,102264.00
2023-01-03T15:26:51.542Z,102269.00
2023-01-03T15:29:23.920Z,102269.00
2023-01-03T15:32:01.102Z,102266.00
2023-01-03T15:34:30.749Z,102266.00
2023-01-03T15:37:02.852Z,102271.00
2023-01-03T15:39:45.832Z,102263.00
2023-01-03T15:42:50.186Z,102264.00
2023-01-03T15:45:28.329Z,102260.00
2023-01-03T15:47:58.146Z,102264.00
2023-01-03T15:50:35.857Z,102261.00
2023-01-03T15:53:02.493Z,102248.00
2023-01-03T15:55:29.150Z,102246.00
2023-01-03T15:57:56.390Z,102242.00
2023-01-03T16:00:26.089Z,102234.00
2023-01-03T16:02:53.026Z,102252.00
2023-01-03T16:05:22.956Z,102243.00
2023-01-03T16:07:50.594Z,102247.00
2023-01-03T16:10:17.313Z,102247.00
2023-01-03T16:12:44.317Z,102249.00
2023-01-03T16:15:21.535Z,102244.00
2023-01-03T16:17:49.920Z,102244.00
2023-01-03T16:20:18.024Z,102245.00
2023-01-03T16:22:57.320Z,102251.00
2023-01-03T16:25:26.850Z,102254.00
2023-01-03T16:27:53.515Z,102248.00
2023-01-03T16:30:20.177Z,102244.00
2023-01-03T16:32:46.893Z,102232.00
2023-01-03T16:35:18.361Z,102225.00
2023-01-03T16:37:45.228Z,102230.00
2023-01-03T16:40:20.301Z,102248.00
2023-01-03T16:42:47.715Z,102249.00
2023-01-03T16:45:15.269Z,102238.00
2023-01-03T16:47:43.323Z,102239.00
2023-01-03T16:50:16.056Z,102227.00
2023-01-03T16:52:46.337Z,102238.00
2023-01-03T16:55:36.344Z,102223.00
2023-01-03T16:58:03.087Z,102214.00
2023-01-03T17:00:31.974Z,102203.00
2023-01-03T17:03:00.138Z,102207.00
2023-01-03T17:05:29.205Z,102203.00
2023-01-03T17:08:05.134Z,102216.00
2023-01-03T17:10:35.970Z,102213.00
2023-01-03T17:13:08.612Z,102224.00
2023-01-03T17:15:39.784Z,102211.00
2023-01-03T17:18:06.408Z,102199.00
2023-01-03T17:20:33.114Z,102203.00
2023-01-03T17:23:00.537Z,102210.00
2023-01-03T17:25:27.369Z,102206.00
2023-01-03T17:27:57.405Z,102212.00
2023-01-03T17:30:26.971Z,102202.00
2023-01-03T17:32:55.205Z,102193.00
2023-01-03T17:35:22.356Z,102181.00
2023-01-03T17:38:23.894Z,102195.00
2023-01-03T17:40:35.777Z,102191.00
2023-01-03T17:43:02.736Z,102189.00
2023-01-03T17:45:48.040Z,102200.00
2023-01-03T17:48:33.204Z,102180.00
2023-01-03T17:51:01.765Z,102185.00
2023-01-03T17:53:29.543Z,102175.00
2023-01-03T17:55:56.346Z,102185.00
2023-01-03T17:58:32.940Z,102172.00
2023-01-03T18:01:00.076Z,102181.00
2023-01-03T18:03:26.864Z,102175.00
2023-01-03T18:05:54.452Z,102154.00
2023-01-03T18:08:22.745Z,102160.00
2023-01-03T18:10:50.203Z,102157.00
2023-01-03T18:13:22.779Z,102152.00
2023-01-03T18:15:49.994Z,102156.00
2023-01-03T18:18:18.329Z,102167.00
2023-01-03T18:20:45.696Z,102138.00
2023-01-03T18:23:18.682Z,102154.00
2023-01-03T18:25:46.706Z,102149.00
2023-01-03T18:28:16.359Z,102159.00
2023-01-03T18:30:43.208Z,102151.00
2023-01-03T18:33:10.157Z,102149.00
2023-01-03T18:35:38.349Z,102165.00
2023-01-03T18:38:05.640Z,102149.00
2023-01-03T18:40:32.407Z,102162.00
2023-01-03T18:43:10.220Z,102157.00
2023-01-03T18:45:38.893Z,102150.00
2023-01-03T18:48:06.121Z,102146.00
2023-01-03T18:50:33.592Z,102158.00
2023-01-03T18:53:04.274Z,102133.00
2023-01-03T18:55:33.822Z,102132.00
2023-01-03T18:58:37.321Z,102106.00
2023-01-03T19:01:05.325Z,102096.00
2023-01-03T19:03:33.713Z,102100.00
2023-01-03T19:06:02.050Z,102087.00
2023-01-03T19:08:33.148Z,102090.00
2023-01-03T19:11:06.014Z,102096.00
2023-01-03T19:13:50.376Z,102080.00
2023-01-03T19:16:30.182Z,102083.00
2023-01-03T19:18:57.287Z,102079.00
2023-01-03T19:21:25.935Z,102071.00
2023-01-03T19:24:00.732Z,102077.00
2023-01-03T19:26:41.625Z,102068.00
2023-01-03T19:29:18.722Z,102088.00
2023-01-03T19:31:47.530Z,102066.00
2023-01-03T19:34:16.010Z,102063.00
2023-01-03T19:36:42.838Z,102067.00
2023-01-03T19:39:10.139Z,102051.00
2023-01-03T19:42:04.018Z,102047.00
2023-01-03T19:44:31.763Z,102043.00
2023-01-03T19:46:58.825Z,102041.00
2023-01-03T19:49:25.769Z,102043.00
2023-01-03T19:51:52.563Z,102051.00
2023-01-03T19:54:19.383Z,102032.00
2023-01-03T19:56:45.982Z,102033.00
2023-01-03T19:59:24.412Z,102022.00
2023-01-03T20:02:23.398Z,102031.00
2023-01-03T20:04:37.936Z,102010.00
2023-01-03T20:07:13.525Z,102016.00
2023-01-03T20:09:40.201Z,102017.00
2023-01-03T20:12:12.995Z,101999.00
2023-01-03T20:14:42.983Z,101997.00
2023-01-03T20:17:39.087Z,101999.00
2023-01-03T20:20:06.193Z,102001.00
2023-01-03T20:25:30.811Z,102004.00
2023-01-03T20:28:00.801Z,101997.00
2023-01-03T20:30:30.531Z,101974.00
2023-01-03T20:32:57.187Z,102002.00
2023-01-03T20:38:12.406Z,101988.00
2023-01-03T20:40:39.422Z,101982.00
2023-01-03T20:43:06.163Z,101980.00
2023-01-03T20:45:33.309Z,101969.00
2023-01-03T20:48:00.078Z,101973.00
2023-01-03T20:50:28.793Z,101967.00
2023-01-03T20:52:57.258Z,101967.00
2023-01-03T20:55:25.600Z,101948.00
2023-01-03T20:57:52.375Z,101957.00
2023-01-03T21:00:39.297Z,101947.00
2023-01-03T21:03:07.163Z,101951.00
2023-01-03T21:05:33.973Z,101943.00
2023-01-03T21:08:19.177Z,101941.00
2023-01-03T21:10:52.675Z,101935.00
2023-01-03T21:13:22.690Z,101948.00
2023-01-03T21:15:50.101Z,101926.00
2023-01-03T21:18:17.008Z,101941.00
2023-01-03T21:20:44.264Z,101929.00
2023-01-03T21:23:19.306Z,101912.00
2023-01-03T21:25:46.278Z,101912.00
2023-01-03T21:28:13.376Z,101935.00
2023-01-03T21:30:40.838Z,101916.00
2023-01-03T21:33:16.105Z,101903.00
2023-01-03T21:35:42.780Z,101908.00
2023-01-03T21:38:10.268Z,101897.00
2023-01-03T21:40:37.114Z,101902.00
2023-01-03T21:43:05.111Z,101910.00
2023-01-03T21:45:40.392Z,101889.00
2023-01-03T21:48:10.463Z,101877.00
2023-01-03T21:50:45.666Z,101885.00
2023-01-03T21:53:23.006Z,101864.00
2023-01-03T21:55:50.041Z,101876.00
2023-01-03T21:58:18.473Z,101862.00
2023-01-03T22:00:45.397Z,101879.00
2023-01-03T22:03:31.991Z,101883.00
2023-01-03T22:06:10.861Z,101882.00
2023-01-03T22:08:38.650Z,101858.00
2023-01-03T22:11:05.967Z,101839.00
2023-01-03T22:13:33.669Z,101863.00
2023-01-03T22:16:08.390Z,101857.00
2023-01-03T22:18:35.973Z,101856.00
2023-01-03T22:21:04.953Z,101837.00
2023-01-03T22:23:31.789Z,101846.00
2023-01-03T22:26:13.099Z,101841.00
2023-01-03T22:28:45.543Z,101849.00
2023-01-03T22:31:16.243Z,101843.00
2023-01-03T22:33:43.801Z,101848.00
2023-01-03T22:36:11.317Z,101841.00
2023-01-03T22:38:39.099Z,101839.00
2023-01-03T22:41:10.996Z,101837.00
2023-01-03T22:43:38.117Z,101840.00
2023-01-03T22:46:09.768Z,101841.00
2023-01-03T22:48:36.527Z,101823.00
2023-01-03T22:51:08.353Z,101827.00
2023-01-03T22:53:36.267Z,101823.00
2023-01-03T22:56:07.563Z,101821.00
2023-01-03T22:58:35.524Z,101812.00
2023-01-03T23:01:13.403Z,101823.00
2023-01-03T23:03:40.506Z,101808.00
2023-01-03T23:06:09.181Z,101815.00
2023-01-03T23:08:36.119Z,101805.00
2023-01-03T23:11:34.377Z,101809.00
2023-01-03T23:14:04.145Z,101823.00
2023-01-03T23:16:32.254Z,101808.00
2023-01-03T23:19:01.993Z,101809.00
2023-01-03T23:21:28.670Z,101808.00
2023-01-03T23:23:55.274Z,101806.00
2023-01-03T23:26:21.880Z,101812.00
2023-01-03T23:28:48.518Z,101804.00
2023-01-03T23:31:15.245Z,101796.00
2023-01-03T23:33:41.951Z,101780.00
2023-01-03T23:36:10.850Z,101776.00
2023-01-03T23:38:37.432Z,101768.00
2023-01-03T23:41:08.945Z,101767.00
2023-01-03T23:43:36.561Z,101774.00
2023-01-03T23:46:03.976Z,101762.00
2023-01-03T23:48:31.356Z,101766.00
2023-01-03T23:51:06.246Z,101759.00
2023-01-03T23:53:37.087Z,101760.00
2023-01-03T23:56:06.031Z,101756.00
2023-01-03T23:58:32.861Z,101767.00
